Terminal Aerodrome Forecast
Issued by NWS

Home | Current Version | Previous Version | Graphics & Text | Print | Product List | Glossary On
Versions: 1 2 3 4 5 6 7 8 9 10 11 12 13 14 15 16 17 18 19 20 21 22 23 24 25 26
556
FTUS43 KLOT 121732
TAFORD
TAF
KORD 121732Z 1218/1324 31013G21KT P6SM SCT035 SCT200
     FM122300 30009KT P6SM BKN100
     FM130700 20006KT P6SM SCT045 OVC060
     FM131100 17010KT P6SM SCT030 OVC040
      TEMPO 1312/1316 2SM -SN SCT020 OVC030
     FM131600 21012G18KT P6SM SCT030 OVC060
     FM131800 23013G19KT 6SM -SN OVC025
      TEMPO 1319/1321 1 1/2SM -SHSN SCT015 OVC020
     FM132100 30014G24KT P6SM OVC018=

USA.gov is the U.S. government's official web portal to all federal, state and local government web resources and services.